createdAt,value
2023-05-12T00:01:59.045Z,3.50
2023-05-12T00:04:44.508Z,2.95
2023-05-12T00:07:29.682Z,3.28
2023-05-12T00:10:15.183Z,3.70
2023-05-12T00:13:00.309Z,3.65
2023-05-12T00:15:45.589Z,3.08
2023-05-12T00:18:30.967Z,3.40
2023-05-12T00:21:16.185Z,3.50
2023-05-12T00:24:01.746Z,3.70
2023-05-12T00:26:46.691Z,3.95
2023-05-12T00:29:32.939Z,3.90
2023-05-12T00:32:18.316Z,3.85
2023-05-12T00:35:03.689Z,4.07
2023-05-12T00:37:48.719Z,3.70
2023-05-12T00:40:34.073Z,3.28
2023-05-12T00:43:19.418Z,3.75
2023-05-12T00:46:06.246Z,3.42
2023-05-12T00:48:52.157Z,3.28
2023-05-12T00:51:37.665Z,4.07
2023-05-12T00:54:23.292Z,3.67
2023-05-12T00:57:08.474Z,3.90
2023-05-12T00:59:55.506Z,3.65
2023-05-12T01:02:41.095Z,4.05
2023-05-12T01:05:32.109Z,3.35
2023-05-12T01:08:17.855Z,3.58
2023-05-12T01:11:02.997Z,3.55
2023-05-12T01:13:48.342Z,3.70
2023-05-12T01:16:39.396Z,4.07
2023-05-12T01:19:42.740Z,3.55
2023-05-12T01:22:33.841Z,4.00
2023-05-12T01:25:22.305Z,3.80
2023-05-12T01:28:08.089Z,3.25
2023-05-12T01:30:53.794Z,3.45
2023-05-12T01:33:39.822Z,3.70
2023-05-12T01:36:25.174Z,3.15
2023-05-12T01:39:10.567Z,4.03
2023-05-12T01:41:56.130Z,3.47
2023-05-12T01:44:41.454Z,3.47
2023-05-12T01:47:26.780Z,3.85
2023-05-12T01:50:12.103Z,3.80
2023-05-12T01:52:57.359Z,4.20
2023-05-12T01:55:42.678Z,3.50
2023-05-12T01:58:27.870Z,4.07
2023-05-12T02:01:13.452Z,3.78
2023-05-12T02:03:59.548Z,4.10
2023-05-12T02:06:44.855Z,3.80
2023-05-12T02:09:30.395Z,3.65
2023-05-12T02:12:16.021Z,3.78
2023-05-12T02:15:01.016Z,3.78
2023-05-12T02:17:46.441Z,3.47
2023-05-12T02:20:31.629Z,3.78
2023-05-12T02:23:16.955Z,3.42
2023-05-12T02:26:02.106Z,3.20
2023-05-12T02:28:47.388Z,3.53
2023-05-12T02:31:32.779Z,4.00
2023-05-12T02:34:18.146Z,3.50
2023-05-12T02:37:04.090Z,3.65
2023-05-12T02:39:49.336Z,3.13
2023-05-12T02:42:36.181Z,3.63
2023-05-12T02:45:21.455Z,3.97
2023-05-12T02:48:06.763Z,3.45
2023-05-12T02:50:52.197Z,3.53
2023-05-12T02:53:37.365Z,3.42
2023-05-12T02:56:22.751Z,3.78
2023-05-12T02:59:08.043Z,3.67
2023-05-12T03:01:53.319Z,3.50
2023-05-12T03:04:38.658Z,3.47
2023-05-12T03:07:24.150Z,3.50
2023-05-12T03:10:10.534Z,3.53
2023-05-12T03:12:55.918Z,3.38
2023-05-12T03:15:41.367Z,3.33
2023-05-12T03:18:28.341Z,3.55
2023-05-12T03:21:13.551Z,2.97
2023-05-12T03:23:58.789Z,3.33
2023-05-12T03:26:43.961Z,3.55
2023-05-12T03:29:29.299Z,3.30
2023-05-12T03:32:14.765Z,3.10
2023-05-12T03:35:00.030Z,3.08
2023-05-12T03:37:45.383Z,4.22
2023-05-12T03:40:30.795Z,3.85
2023-05-12T03:43:15.923Z,3.03
2023-05-12T03:46:01.294Z,5.00
2023-05-12T03:48:46.957Z,3.53
2023-05-12T03:51:31.925Z,3.85
2023-05-12T03:54:17.130Z,3.65
2023-05-12T03:57:03.551Z,3.95
2023-05-12T03:59:48.935Z,4.10
2023-05-12T04:02:34.305Z,3.92
2023-05-12T04:05:19.540Z,3.78
2023-05-12T04:08:05.213Z,3.45
2023-05-12T04:10:50.221Z,3.60
2023-05-12T04:13:35.437Z,3.95
2023-05-12T04:16:21.375Z,3.22
2023-05-12T04:19:06.614Z,3.35
2023-05-12T04:21:51.973Z,3.83
2023-05-12T04:24:38.832Z,3.75
2023-05-12T04:27:24.332Z,3.70
2023-05-12T04:30:09.796Z,3.97
2023-05-12T04:32:55.472Z,3.88
2023-05-12T04:35:41.090Z,3.60
2023-05-12T04:38:26.834Z,4.18
2023-05-12T04:41:11.929Z,4.63
2023-05-12T04:46:45.867Z,5.82
2023-05-12T04:49:30.916Z,5.13
2023-05-12T04:52:16.289Z,5.10
2023-05-12T04:55:01.657Z,5.82
2023-05-12T04:57:47.044Z,6.07
2023-05-12T05:00:32.399Z,6.53
2023-05-12T05:03:17.751Z,6.53
2023-05-12T05:06:02.960Z,6.38
2023-05-12T05:08:48.472Z,6.88
2023-05-12T05:11:33.520Z,6.90
2023-05-12T05:14:18.890Z,5.75
2023-05-12T05:17:07.972Z,5.25
2023-05-12T05:19:58.389Z,5.53
2023-05-12T05:22:44.583Z,4.82
2023-05-12T05:25:29.836Z,6.20
2023-05-12T05:28:15.540Z,5.47
2023-05-12T05:31:01.043Z,5.22
2023-05-12T05:33:46.339Z,4.82
2023-05-12T05:36:31.836Z,4.70
2023-05-12T05:39:17.585Z,4.35
2023-05-12T05:42:03.100Z,5.13
2023-05-12T05:44:48.547Z,5.30
2023-05-12T05:47:34.441Z,4.72
2023-05-12T05:50:19.753Z,4.18
2023-05-12T05:53:04.868Z,3.72
2023-05-12T05:55:50.171Z,3.30
2023-05-12T05:58:35.665Z,3.30
2023-05-12T06:01:20.853Z,3.95
2023-05-12T06:04:06.221Z,4.47
2023-05-12T06:06:51.696Z,3.70
2023-05-12T06:09:36.994Z,3.25
2023-05-12T06:12:22.031Z,3.22
2023-05-12T06:15:08.217Z,3.70
2023-05-12T06:17:53.364Z,3.40
2023-05-12T06:20:38.526Z,2.50
2023-05-12T06:23:23.813Z,2.80
2023-05-12T06:26:09.626Z,2.42
2023-05-12T06:28:55.123Z,3.22
2023-05-12T06:31:40.292Z,2.47
2023-05-12T06:34:25.868Z,2.55
2023-05-12T06:37:11.474Z,3.05
2023-05-12T06:39:56.426Z,2.63
2023-05-12T06:42:41.546Z,2.70
2023-05-12T06:45:26.838Z,2.58
2023-05-12T06:48:12.226Z,2.50
2023-05-12T06:50:57.532Z,2.45
2023-05-12T06:53:42.862Z,2.75
2023-05-12T06:56:29.438Z,2.13
2023-05-12T06:59:14.842Z,3.38
2023-05-12T07:02:00.230Z,2.40
2023-05-12T07:04:45.492Z,2.30
2023-05-12T07:07:30.750Z,2.67
2023-05-12T07:10:16.349Z,2.42
2023-05-12T07:13:01.483Z,2.47
2023-05-12T07:15:46.719Z,2.05
2023-05-12T07:18:32.197Z,2.40
2023-05-12T07:21:17.398Z,2.65
2023-05-12T07:24:02.981Z,2.50
2023-05-12T07:26:48.370Z,2.33
2023-05-12T07:29:34.335Z,2.75
2023-05-12T07:32:19.834Z,2.60
2023-05-12T07:35:05.449Z,2.40
2023-05-12T07:37:50.938Z,2.28
2023-05-12T07:40:36.086Z,2.75
2023-05-12T07:43:21.482Z,2.85
2023-05-12T07:46:06.862Z,3.40
2023-05-12T07:48:52.125Z,3.10
2023-05-12T07:51:37.675Z,2.75
2023-05-12T07:54:22.930Z,2.40
2023-05-12T07:57:08.515Z,2.65
2023-05-12T07:59:53.651Z,2.42
2023-05-12T08:02:40.517Z,2.20
2023-05-12T08:05:26.039Z,2.22
2023-05-12T08:08:16.616Z,2.35
2023-05-12T08:11:02.377Z,2.42
2023-05-12T08:13:47.615Z,1.85
2023-05-12T08:16:33.036Z,2.72
2023-05-12T08:19:18.516Z,2.67
2023-05-12T08:22:03.769Z,2.38
2023-05-12T08:24:48.712Z,2.45
2023-05-12T08:27:34.176Z,2.60
2023-05-12T08:30:19.351Z,2.53
2023-05-12T08:33:05.000Z,2.20
2023-05-12T08:35:50.782Z,2.45
2023-05-12T08:38:35.821Z,2.38
2023-05-12T08:41:31.732Z,2.20
2023-05-12T08:44:19.075Z,2.00
2023-05-12T08:47:05.815Z,2.38
2023-05-12T08:50:00.250Z,2.50
2023-05-12T08:52:45.403Z,2.70
2023-05-12T08:55:34.125Z,2.35
2023-05-12T09:01:19.702Z,2.42
2023-05-12T09:04:05.109Z,2.40
2023-05-12T09:06:51.750Z,2.60
2023-05-12T09:09:40.751Z,2.43
2023-05-12T09:12:29.817Z,2.58
2023-05-12T09:18:04.423Z,2.30
2023-05-12T09:20:49.738Z,2.50
2023-05-12T09:23:35.184Z,2.00
2023-05-12T09:26:22.729Z,1.77
2023-05-12T09:29:08.615Z,2.20
2023-05-12T09:31:59.534Z,2.13
2023-05-12T09:34:45.565Z,2.17
2023-05-12T09:37:32.438Z,2.40
2023-05-12T09:40:17.449Z,2.10
2023-05-12T09:43:03.954Z,2.00
2023-05-12T09:45:50.712Z,2.38
2023-05-12T09:48:39.056Z,2.58
2023-05-12T09:51:25.949Z,2.10
2023-05-12T09:54:10.969Z,2.35
2023-05-12T09:57:02.627Z,2.20
2023-05-12T09:59:48.287Z,2.30
2023-05-12T10:02:34.665Z,1.83
2023-05-12T10:05:21.866Z,2.88
2023-05-12T10:08:08.240Z,2.38
2023-05-12T10:10:56.338Z,2.20
2023-05-12T10:13:41.992Z,1.90
2023-05-12T10:16:28.800Z,2.33
2023-05-12T10:19:14.600Z,2.40
2023-05-12T10:22:00.794Z,2.40
2023-05-12T10:24:47.154Z,2.20
2023-05-12T10:27:33.473Z,2.20
2023-05-12T10:30:18.692Z,1.90
2023-05-12T10:33:04.050Z,1.92
2023-05-12T10:35:51.855Z,2.38
2023-05-12T10:38:37.465Z,1.75
2023-05-12T10:41:34.105Z,2.10
2023-05-12T10:44:27.862Z,2.15
2023-05-12T10:47:14.957Z,1.98
2023-05-12T10:50:00.350Z,2.20
2023-05-12T10:52:58.017Z,2.08
2023-05-12T10:55:46.454Z,2.42
2023-05-12T10:58:32.973Z,1.98
2023-05-12T11:01:25.281Z,1.90
2023-05-12T11:04:16.278Z,1.80
2023-05-12T11:07:02.877Z,2.08
2023-05-12T11:12:37.867Z,1.88
2023-05-12T11:15:23.427Z,2.42
2023-05-12T11:18:09.397Z,2.05
2023-05-12T11:20:54.934Z,2.13
2023-05-12T11:23:40.317Z,2.03
2023-05-12T11:26:27.304Z,1.85
2023-05-12T11:29:12.334Z,1.75
2023-05-12T11:31:58.799Z,1.80
2023-05-12T11:34:44.573Z,2.00
2023-05-12T11:37:30.608Z,1.98
2023-05-12T11:40:18.222Z,1.85
2023-05-12T11:43:10.002Z,2.00
2023-05-12T11:45:55.902Z,1.55
2023-05-12T11:48:41.213Z,1.92
2023-05-12T11:51:27.493Z,1.95
2023-05-12T11:54:12.809Z,2.17
2023-05-12T11:56:58.582Z,2.13
2023-05-12T11:59:43.831Z,1.90
2023-05-12T12:02:30.646Z,2.08
2023-05-12T12:05:18.443Z,1.85
2023-05-12T12:08:08.465Z,2.33
2023-05-12T12:10:53.630Z,2.13
2023-05-12T12:13:39.148Z,1.60
2023-05-12T12:16:29.576Z,2.30
2023-05-12T12:19:14.854Z,1.40
2023-05-12T12:22:00.066Z,2.30
2023-05-12T12:24:45.365Z,2.03
2023-05-12T12:27:30.889Z,1.60
2023-05-12T12:30:17.024Z,2.03
2023-05-12T12:33:02.484Z,1.83
2023-05-12T12:35:48.057Z,2.20
2023-05-12T12:38:33.435Z,2.05
2023-05-12T12:41:18.682Z,2.13
2023-05-12T12:44:04.014Z,2.22
2023-05-12T12:46:49.391Z,2.20
2023-05-12T12:49:34.551Z,2.35
2023-05-12T12:52:19.848Z,2.40
2023-05-12T12:55:08.785Z,2.67
2023-05-12T13:00:39.015Z,1.95
2023-05-12T13:03:24.355Z,2.22
2023-05-12T13:06:09.613Z,2.20
2023-05-12T13:08:55.374Z,1.83
2023-05-12T13:11:40.788Z,2.35
2023-05-12T13:14:26.186Z,1.98
2023-05-12T13:17:11.340Z,2.30
2023-05-12T13:19:56.766Z,2.13
2023-05-12T13:22:42.923Z,2.40
2023-05-12T13:25:28.390Z,2.63
2023-05-12T13:28:13.679Z,1.83
2023-05-12T13:30:59.081Z,1.90
2023-05-12T13:33:44.277Z,2.03
2023-05-12T13:36:30.342Z,2.15
2023-05-12T13:39:16.852Z,2.00
2023-05-12T13:42:03.264Z,2.08
2023-05-12T13:44:49.184Z,2.40
2023-05-12T13:47:34.271Z,1.90
2023-05-12T13:50:19.464Z,2.70
2023-05-12T13:53:04.841Z,2.03
2023-05-12T13:55:50.063Z,2.15
2023-05-12T13:58:35.543Z,2.15
2023-05-12T14:01:20.842Z,2.42
2023-05-12T14:04:06.117Z,2.20
2023-05-12T14:06:51.646Z,2.40
2023-05-12T14:09:36.905Z,2.55
2023-05-12T14:12:22.343Z,2.53
2023-05-12T14:15:20.030Z,2.60
2023-05-12T14:18:11.578Z,1.98
2023-05-12T14:20:57.332Z,2.35
2023-05-12T14:23:42.702Z,2.10
2023-05-12T14:26:28.355Z,2.38
2023-05-12T14:29:13.376Z,1.88
2023-05-12T14:31:59.935Z,2.10
2023-05-12T14:34:45.171Z,2.30
2023-05-12T14:37:31.510Z,2.17
2023-05-12T14:40:16.678Z,2.25
2023-05-12T14:43:02.548Z,2.42
2023-05-12T14:45:54.690Z,2.28
2023-05-12T14:48:40.204Z,2.58
2023-05-12T14:51:25.497Z,1.95
2023-05-12T14:54:24.331Z,2.10
2023-05-12T14:57:11.044Z,2.15
2023-05-12T14:59:58.753Z,2.15
2023-05-12T15:02:45.265Z,2.23
2023-05-12T15:05:52.916Z,2.30
2023-05-12T15:08:35.780Z,2.75
2023-05-12T15:11:21.678Z,2.28
2023-05-12T15:14:07.135Z,1.88
2023-05-12T15:16:52.632Z,1.98
2023-05-12T15:19:37.849Z,2.17
2023-05-12T15:22:23.374Z,2.00
2023-05-12T15:25:09.173Z,1.88
2023-05-12T15:27:54.685Z,2.10
2023-05-12T15:30:39.991Z,3.13
2023-05-12T15:33:25.578Z,1.90
2023-05-12T15:36:11.569Z,1.80
2023-05-12T15:38:57.029Z,2.20
2023-05-12T15:41:42.844Z,2.20
2023-05-12T15:44:27.943Z,1.73
2023-05-12T15:47:14.463Z,1.85
2023-05-12T15:49:59.828Z,1.80
2023-05-12T15:52:46.279Z,1.90
2023-05-12T15:55:32.271Z,2.28
2023-05-12T15:58:17.541Z,2.80
2023-05-12T16:01:02.723Z,2.95
2023-05-12T16:03:50.085Z,2.28
2023-05-12T16:06:35.486Z,2.60
2023-05-12T16:09:20.829Z,2.22
2023-05-12T16:12:08.674Z,1.95
2023-05-12T16:14:54.627Z,2.08
2023-05-12T16:17:40.019Z,1.58
2023-05-12T16:20:25.329Z,2.22
2023-05-12T16:23:10.792Z,2.15
2023-05-12T16:25:56.109Z,3.70
2023-05-12T16:28:41.318Z,3.53
2023-05-12T16:31:26.919Z,2.75
2023-05-12T16:34:12.342Z,2.00
2023-05-12T16:36:57.679Z,2.03
2023-05-12T16:39:42.915Z,2.33
2023-05-12T16:42:28.211Z,2.72
2023-05-12T16:45:13.576Z,2.67
2023-05-12T16:47:58.734Z,2.58
2023-05-12T16:50:43.912Z,2.28
2023-05-12T16:53:30.040Z,2.00
2023-05-12T16:56:15.118Z,2.85
2023-05-12T16:59:01.250Z,2.13
2023-05-12T17:01:46.256Z,2.10
2023-05-12T17:04:31.734Z,2.17
2023-05-12T17:07:16.990Z,2.65
2023-05-12T17:10:02.841Z,2.50
2023-05-12T17:12:48.491Z,2.40
2023-05-12T17:15:33.704Z,2.10
2023-05-12T17:18:19.089Z,2.30
2023-05-12T17:21:04.792Z,2.28
2023-05-12T17:23:50.675Z,1.60
2023-05-12T17:26:36.076Z,2.20
2023-05-12T17:29:21.565Z,2.10
2023-05-12T17:32:07.422Z,1.85
2023-05-12T17:34:52.591Z,2.15
2023-05-12T17:37:38.458Z,2.00
2023-05-12T17:40:23.736Z,2.08
2023-05-12T17:43:08.906Z,2.00
2023-05-12T17:45:54.168Z,2.60
2023-05-12T17:48:39.187Z,2.50
2023-05-12T17:51:24.635Z,2.13
2023-05-12T17:54:09.829Z,2.15
2023-05-12T17:56:55.169Z,2.17
2023-05-12T17:59:40.219Z,2.10
2023-05-12T18:02:25.435Z,2.00
2023-05-12T18:05:11.198Z,2.33
2023-05-12T18:07:56.494Z,2.08
2023-05-12T18:10:41.645Z,2.53
2023-05-12T18:13:27.152Z,2.58
2023-05-12T18:16:21.686Z,2.00
2023-05-12T18:19:13.733Z,2.38
2023-05-12T18:21:59.204Z,1.95
2023-05-12T18:24:44.637Z,2.45
2023-05-12T18:27:29.722Z,2.70
2023-05-12T18:30:15.125Z,2.40
2023-05-12T18:33:00.273Z,2.15
2023-05-12T18:35:45.859Z,2.47
2023-05-12T18:38:31.277Z,2.80
2023-05-12T18:41:16.715Z,2.60
2023-05-12T18:44:01.947Z,2.15
2023-05-12T18:46:47.648Z,2.72
2023-05-12T18:49:33.263Z,2.38
2023-05-12T18:52:19.903Z,2.20
2023-05-12T18:55:05.413Z,2.25
2023-05-12T18:57:50.528Z,2.50
2023-05-12T19:00:36.181Z,2.50
2023-05-12T19:03:21.598Z,2.63
2023-05-12T19:06:06.698Z,2.88
2023-05-12T19:08:52.223Z,3.20
2023-05-12T19:11:37.428Z,2.10
2023-05-12T19:14:24.022Z,2.72
2023-05-12T19:17:09.343Z,2.50
2023-05-12T19:19:54.814Z,2.40
2023-05-12T19:22:40.694Z,2.78
2023-05-12T19:25:26.283Z,2.80
2023-05-12T19:28:12.070Z,3.63
2023-05-12T19:30:57.426Z,2.90
2023-05-12T19:33:42.791Z,3.22
2023-05-12T19:36:29.847Z,3.05
2023-05-12T19:39:15.275Z,3.08
2023-05-12T19:42:00.766Z,2.67
2023-05-12T19:44:46.217Z,2.20
2023-05-12T19:47:33.355Z,2.17
2023-05-12T19:50:20.177Z,2.40
2023-05-12T19:53:05.278Z,2.30
2023-05-12T19:55:50.547Z,2.30
2023-05-12T19:58:35.854Z,2.55
2023-05-12T20:01:21.321Z,2.35
2023-05-12T20:04:06.643Z,2.15
2023-05-12T20:06:53.875Z,2.28
2023-05-12T20:09:38.994Z,2.60
2023-05-12T20:12:24.321Z,3.08
2023-05-12T20:15:10.629Z,2.65
2023-05-12T20:17:56.224Z,2.95
2023-05-12T20:20:42.479Z,2.17
2023-05-12T20:23:28.008Z,2.80
2023-05-12T20:26:13.335Z,3.10
2023-05-12T20:28:59.600Z,3.33
2023-05-12T20:31:45.762Z,3.50
2023-05-12T20:34:32.169Z,3.25
2023-05-12T20:37:18.237Z,3.42
2023-05-12T20:40:05.358Z,3.25
2023-05-12T20:42:50.558Z,3.10
2023-05-12T20:45:36.793Z,3.33
2023-05-12T20:48:22.425Z,2.85
2023-05-12T20:51:13.481Z,2.65
2023-05-12T20:53:58.859Z,2.60
2023-05-12T20:56:44.087Z,3.17
2023-05-12T20:59:29.393Z,2.72
2023-05-12T21:02:18.375Z,3.10
2023-05-12T21:05:05.328Z,2.97
2023-05-12T21:07:50.337Z,2.63
2023-05-12T21:10:39.369Z,2.40
2023-05-12T21:13:24.757Z,2.70
2023-05-12T21:16:10.207Z,3.08
2023-05-12T21:18:56.106Z,2.80
2023-05-12T21:21:41.534Z,2.80
2023-05-12T21:24:27.596Z,2.72
2023-05-12T21:27:12.658Z,2.97
2023-05-12T21:29:58.251Z,2.50
2023-05-12T21:32:43.740Z,2.63
2023-05-12T21:35:28.985Z,2.90
2023-05-12T21:38:14.428Z,2.60
2023-05-12T21:41:00.444Z,2.40
2023-05-12T21:43:45.653Z,2.60
2023-05-12T21:46:31.155Z,2.65
2023-05-12T21:49:16.315Z,2.75
2023-05-12T21:52:01.677Z,2.22
2023-05-12T21:54:47.083Z,2.30
2023-05-12T21:57:32.321Z,2.35
2023-05-12T22:00:20.051Z,2.30
2023-05-12T22:03:07.995Z,2.50
2023-05-12T22:05:53.362Z,2.40
2023-05-12T22:08:38.598Z,3.30
2023-05-12T22:11:24.254Z,2.95
2023-05-12T22:14:09.933Z,2.58
2023-05-12T22:16:56.151Z,3.65
2023-05-12T22:19:41.576Z,2.60
2023-05-12T22:22:27.017Z,3.15
2023-05-12T22:25:12.203Z,2.70
2023-05-12T22:27:57.592Z,2.50
2023-05-12T22:30:42.824Z,2.80
2023-05-12T22:33:28.129Z,2.60
2023-05-12T22:36:13.522Z,2.22
2023-05-12T22:38:58.817Z,2.17
2023-05-12T22:41:44.141Z,2.80
2023-05-12T22:44:29.356Z,2.55
2023-05-12T22:47:14.746Z,2.88
2023-05-12T22:50:00.748Z,2.20
2023-05-12T22:52:45.776Z,2.90
2023-05-12T22:55:31.144Z,2.58
2023-05-12T22:58:16.420Z,2.78
2023-05-12T23:01:02.046Z,2.50
2023-05-12T23:03:47.533Z,2.50
2023-05-12T23:06:32.811Z,2.88
2023-05-12T23:09:18.197Z,2.40
2023-05-12T23:12:04.829Z,2.53
2023-05-12T23:14:50.709Z,2.40
2023-05-12T23:17:35.844Z,2.42
2023-05-12T23:20:21.500Z,2.75
2023-05-12T23:23:07.169Z,2.70
2023-05-12T23:25:52.522Z,3.05
2023-05-12T23:28:37.999Z,2.55
2023-05-12T23:31:23.311Z,2.67
2023-05-12T23:34:08.608Z,3.08
2023-05-12T23:36:54.286Z,2.50
2023-05-12T23:39:39.539Z,2.50
2023-05-12T23:42:24.956Z,2.65
2023-05-12T23:45:10.817Z,2.90
2023-05-12T23:47:56.016Z,2.50
2023-05-12T23:50:41.292Z,2.88
2023-05-12T23:53:26.549Z,3.15
2023-05-12T23:56:11.790Z,2.80
2023-05-12T23:58:56.933Z,2.33
